sensor_id;sensor_type;location;lat;lon;timestamp;P1;durP1;ratioP1;P2;durP2;ratioP2
41556;SDS011;27720;51.992;5.890;2023-06-05T00:02:08;2.03;;;1.00;;
41556;SDS011;27720;51.992;5.890;2023-06-05T00:04:33;2.78;;;1.15;;
41556;SDS011;27720;51.992;5.890;2023-06-05T00:07:01;2.25;;;1.33;;
41556;SDS011;27720;51.992;5.890;2023-06-05T00:09:27;2.30;;;0.98;;
41556;SDS011;27720;51.992;5.890;2023-06-05T00:11:53;1.90;;;0.90;;
41556;SDS011;27720;51.992;5.890;2023-06-05T00:14:18;3.63;;;1.00;;
41556;SDS011;27720;51.992;5.890;2023-06-05T00:16:44;1.98;;;1.13;;
41556;SDS011;27720;51.992;5.890;2023-06-05T00:19:10;2.28;;;1.00;;
41556;SDS011;27720;51.992;5.890;2023-06-05T00:21:36;3.53;;;0.85;;
41556;SDS011;27720;51.992;5.890;2023-06-05T00:24:02;2.33;;;1.00;;
41556;SDS011;27720;51.992;5.890;2023-06-05T00:26:28;3.00;;;1.30;;
41556;SDS011;27720;51.992;5.890;2023-06-05T00:28:54;2.78;;;1.17;;
41556;SDS011;27720;51.992;5.890;2023-06-05T00:31:20;2.38;;;1.35;;
41556;SDS011;27720;51.992;5.890;2023-06-05T00:33:47;1.75;;;0.98;;
41556;SDS011;27720;51.992;5.890;2023-06-05T00:36:16;1.60;;;0.80;;
41556;SDS011;27720;51.992;5.890;2023-06-05T00:38:44;2.25;;;1.00;;
41556;SDS011;27720;51.992;5.890;2023-06-05T00:41:13;2.85;;;1.10;;
41556;SDS011;27720;51.992;5.890;2023-06-05T00:43:38;2.35;;;1.30;;
41556;SDS011;27720;51.992;5.890;2023-06-05T00:46:05;1.73;;;1.00;;
41556;SDS011;27720;51.992;5.890;2023-06-05T00:48:31;2.25;;;1.00;;
41556;SDS011;27720;51.992;5.890;2023-06-05T00:50:58;1.48;;;0.90;;
41556;SDS011;27720;51.992;5.890;2023-06-05T00:53:24;2.85;;;1.25;;
41556;SDS011;27720;51.992;5.890;2023-06-05T00:55:52;1.70;;;0.90;;
41556;SDS011;27720;51.992;5.890;2023-06-05T00:58:17;2.80;;;1.35;;
41556;SDS011;27720;51.992;5.890;2023-06-05T01:00:44;2.38;;;1.20;;
41556;SDS011;27720;51.992;5.890;2023-06-05T01:03:11;2.85;;;1.10;;
41556;SDS011;27720;51.992;5.890;2023-06-05T01:05:38;2.85;;;1.40;;
41556;SDS011;27720;51.992;5.890;2023-06-05T01:08:04;2.53;;;1.45;;
41556;SDS011;27720;51.992;5.890;2023-06-05T01:10:31;3.00;;;1.30;;
41556;SDS011;27720;51.992;5.890;2023-06-05T01:12:58;2.75;;;1.42;;
41556;SDS011;27720;51.992;5.890;2023-06-05T01:15:38;3.42;;;1.25;;
41556;SDS011;27720;51.992;5.890;2023-06-05T01:18:05;2.83;;;1.42;;
41556;SDS011;27720;51.992;5.890;2023-06-05T01:20:38;2.75;;;1.15;;
41556;SDS011;27720;51.992;5.890;2023-06-05T01:23:05;2.42;;;1.17;;
41556;SDS011;27720;51.992;5.890;2023-06-05T01:25:31;3.03;;;1.40;;
41556;SDS011;27720;51.992;5.890;2023-06-05T01:28:00;2.80;;;1.33;;
41556;SDS011;27720;51.992;5.890;2023-06-05T01:30:34;2.85;;;1.35;;
41556;SDS011;27720;51.992;5.890;2023-06-05T01:35:38;1.58;;;1.00;;
41556;SDS011;27720;51.992;5.890;2023-06-05T01:38:06;3.30;;;1.33;;
41556;SDS011;27720;51.992;5.890;2023-06-05T01:40:35;3.00;;;1.60;;
41556;SDS011;27720;51.992;5.890;2023-06-05T01:43:01;2.58;;;1.27;;
41556;SDS011;27720;51.992;5.890;2023-06-05T01:45:28;2.70;;;1.20;;
41556;SDS011;27720;51.992;5.890;2023-06-05T01:47:55;2.00;;;1.23;;
41556;SDS011;27720;51.992;5.890;2023-06-05T01:50:22;3.55;;;1.52;;
41556;SDS011;27720;51.992;5.890;2023-06-05T01:52:48;3.40;;;1.52;;
41556;SDS011;27720;51.992;5.890;2023-06-05T01:55:23;2.95;;;1.83;;
41556;SDS011;27720;51.992;5.890;2023-06-05T01:57:50;4.20;;;1.83;;
41556;SDS011;27720;51.992;5.890;2023-06-05T02:00:16;2.88;;;1.40;;
41556;SDS011;27720;51.992;5.890;2023-06-05T02:02:45;2.45;;;1.52;;
41556;SDS011;27720;51.992;5.890;2023-06-05T02:05:13;2.47;;;1.60;;
41556;SDS011;27720;51.992;5.890;2023-06-05T02:07:40;2.72;;;1.48;;
41556;SDS011;27720;51.992;5.890;2023-06-05T02:10:07;4.13;;;1.45;;
41556;SDS011;27720;51.992;5.890;2023-06-05T02:12:34;4.60;;;1.60;;
41556;SDS011;27720;51.992;5.890;2023-06-05T02:15:02;2.85;;;1.55;;
41556;SDS011;27720;51.992;5.890;2023-06-05T02:17:29;3.10;;;1.55;;
41556;SDS011;27720;51.992;5.890;2023-06-05T02:19:55;8.77;;;1.80;;
41556;SDS011;27720;51.992;5.890;2023-06-05T02:22:21;3.67;;;1.77;;
41556;SDS011;27720;51.992;5.890;2023-06-05T02:24:49;3.47;;;1.63;;
41556;SDS011;27720;51.992;5.890;2023-06-05T02:27:19;3.35;;;1.50;;
41556;SDS011;27720;51.992;5.890;2023-06-05T02:29:45;3.03;;;1.60;;
41556;SDS011;27720;51.992;5.890;2023-06-05T02:32:12;3.75;;;1.73;;
41556;SDS011;27720;51.992;5.890;2023-06-05T02:34:38;3.45;;;1.70;;
41556;SDS011;27720;51.992;5.890;2023-06-05T02:37:04;2.55;;;1.63;;
41556;SDS011;27720;51.992;5.890;2023-06-05T02:39:31;4.75;;;2.28;;
41556;SDS011;27720;51.992;5.890;2023-06-05T02:41:58;3.28;;;1.90;;
41556;SDS011;27720;51.992;5.890;2023-06-05T02:44:24;3.08;;;1.60;;
41556;SDS011;27720;51.992;5.890;2023-06-05T02:46:50;4.25;;;2.25;;
41556;SDS011;27720;51.992;5.890;2023-06-05T02:49:15;2.53;;;1.38;;
41556;SDS011;27720;51.992;5.890;2023-06-05T02:51:41;3.75;;;1.90;;
41556;SDS011;27720;51.992;5.890;2023-06-05T02:54:07;5.30;;;2.05;;
41556;SDS011;27720;51.992;5.890;2023-06-05T02:56:33;4.07;;;2.08;;
41556;SDS011;27720;51.992;5.890;2023-06-05T02:59:00;4.63;;;2.20;;
41556;SDS011;27720;51.992;5.890;2023-06-05T03:01:31;2.63;;;1.65;;
41556;SDS011;27720;51.992;5.890;2023-06-05T03:04:01;3.08;;;1.80;;
41556;SDS011;27720;51.992;5.890;2023-06-05T03:06:30;3.53;;;1.70;;
41556;SDS011;27720;51.992;5.890;2023-06-05T03:09:02;4.05;;;2.10;;
41556;SDS011;27720;51.992;5.890;2023-06-05T03:11:28;3.55;;;1.80;;
41556;SDS011;27720;51.992;5.890;2023-06-05T03:13:54;4.53;;;2.58;;
41556;SDS011;27720;51.992;5.890;2023-06-05T03:16:22;3.75;;;1.73;;
41556;SDS011;27720;51.992;5.890;2023-06-05T03:18:52;5.30;;;2.23;;
41556;SDS011;27720;51.992;5.890;2023-06-05T03:21:18;3.58;;;1.75;;
41556;SDS011;27720;51.992;5.890;2023-06-05T03:23:47;3.90;;;1.88;;
41556;SDS011;27720;51.992;5.890;2023-06-05T03:26:14;6.05;;;2.78;;
41556;SDS011;27720;51.992;5.890;2023-06-05T03:28:40;4.40;;;2.22;;
41556;SDS011;27720;51.992;5.890;2023-06-05T03:31:09;4.25;;;2.05;;
41556;SDS011;27720;51.992;5.890;2023-06-05T03:33:38;4.55;;;2.13;;
41556;SDS011;27720;51.992;5.890;2023-06-05T03:36:04;4.10;;;2.10;;
41556;SDS011;27720;51.992;5.890;2023-06-05T03:38:31;3.40;;;1.83;;
41556;SDS011;27720;51.992;5.890;2023-06-05T03:40:56;4.97;;;2.05;;
41556;SDS011;27720;51.992;5.890;2023-06-05T03:43:23;4.13;;;2.13;;
41556;SDS011;27720;51.992;5.890;2023-06-05T03:45:50;5.85;;;2.35;;
41556;SDS011;27720;51.992;5.890;2023-06-05T03:48:18;5.65;;;2.20;;
41556;SDS011;27720;51.992;5.890;2023-06-05T03:50:48;3.00;;;1.60;;
41556;SDS011;27720;51.992;5.890;2023-06-05T03:53:16;3.78;;;1.92;;
41556;SDS011;27720;51.992;5.890;2023-06-05T03:55:44;4.60;;;1.60;;
41556;SDS011;27720;51.992;5.890;2023-06-05T03:58:24;3.33;;;1.67;;
41556;SDS011;27720;51.992;5.890;2023-06-05T04:00:53;3.75;;;2.17;;
41556;SDS011;27720;51.992;5.890;2023-06-05T04:03:37;3.97;;;2.25;;
41556;SDS011;27720;51.992;5.890;2023-06-05T04:06:03;3.95;;;1.75;;
41556;SDS011;27720;51.992;5.890;2023-06-05T04:08:30;4.68;;;2.30;;
41556;SDS011;27720;51.992;5.890;2023-06-05T04:10:56;2.97;;;1.58;;
41556;SDS011;27720;51.992;5.890;2023-06-05T04:13:21;3.90;;;1.98;;
41556;SDS011;27720;51.992;5.890;2023-06-05T04:15:47;3.47;;;1.92;;
41556;SDS011;27720;51.992;5.890;2023-06-05T04:18:14;3.70;;;2.00;;
41556;SDS011;27720;51.992;5.890;2023-06-05T04:20:41;4.07;;;2.17;;
41556;SDS011;27720;51.992;5.890;2023-06-05T04:23:08;2.95;;;1.50;;
41556;SDS011;27720;51.992;5.890;2023-06-05T04:25:38;5.22;;;2.30;;
41556;SDS011;27720;51.992;5.890;2023-06-05T04:28:11;4.10;;;2.22;;
41556;SDS011;27720;51.992;5.890;2023-06-05T04:30:37;5.68;;;2.30;;
41556;SDS011;27720;51.992;5.890;2023-06-05T21:32:50;3.97;;;2.10;;
41556;SDS011;27720;51.992;5.890;2023-06-05T21:35:16;4.47;;;1.92;;
41556;SDS011;27720;51.992;5.890;2023-06-05T21:37:41;3.60;;;1.88;;
41556;SDS011;27720;51.992;5.890;2023-06-05T21:40:07;5.28;;;2.22;;
41556;SDS011;27720;51.992;5.890;2023-06-05T21:42:33;6.95;;;2.80;;
41556;SDS011;27720;51.992;5.890;2023-06-05T21:45:01;3.03;;;1.83;;
41556;SDS011;27720;51.992;5.890;2023-06-05T21:47:27;3.47;;;1.60;;
41556;SDS011;27720;51.992;5.890;2023-06-05T21:49:52;4.88;;;2.30;;
41556;SDS011;27720;51.992;5.890;2023-06-05T21:52:18;4.32;;;2.03;;
41556;SDS011;27720;51.992;5.890;2023-06-05T21:54:44;4.57;;;2.30;;
41556;SDS011;27720;51.992;5.890;2023-06-05T21:57:10;4.55;;;2.22;;
41556;SDS011;27720;51.992;5.890;2023-06-05T21:59:38;5.25;;;2.17;;
41556;SDS011;27720;51.992;5.890;2023-06-05T22:02:05;5.57;;;2.67;;
41556;SDS011;27720;51.992;5.890;2023-06-05T22:04:31;4.13;;;1.85;;
41556;SDS011;27720;51.992;5.890;2023-06-05T22:06:58;5.10;;;2.45;;
41556;SDS011;27720;51.992;5.890;2023-06-05T22:09:24;5.60;;;2.30;;
41556;SDS011;27720;51.992;5.890;2023-06-05T22:11:51;6.70;;;2.70;;
41556;SDS011;27720;51.992;5.890;2023-06-05T22:14:19;4.32;;;2.15;;
41556;SDS011;27720;51.992;5.890;2023-06-05T22:16:53;8.95;;;2.80;;
41556;SDS011;27720;51.992;5.890;2023-06-05T22:19:22;3.85;;;2.30;;
41556;SDS011;27720;51.992;5.890;2023-06-05T22:21:49;5.57;;;1.95;;
41556;SDS011;27720;51.992;5.890;2023-06-05T22:24:17;3.92;;;2.17;;
41556;SDS011;27720;51.992;5.890;2023-06-05T22:26:44;4.57;;;2.28;;
41556;SDS011;27720;51.992;5.890;2023-06-05T22:29:11;4.18;;;2.20;;
41556;SDS011;27720;51.992;5.890;2023-06-05T22:31:38;3.90;;;1.88;;
41556;SDS011;27720;51.992;5.890;2023-06-05T22:34:04;5.50;;;1.95;;
41556;SDS011;27720;51.992;5.890;2023-06-05T22:36:30;5.65;;;2.58;;
41556;SDS011;27720;51.992;5.890;2023-06-05T22:38:57;7.47;;;2.83;;
41556;SDS011;27720;51.992;5.890;2023-06-05T22:41:23;3.53;;;1.92;;
41556;SDS011;27720;51.992;5.890;2023-06-05T22:43:50;5.28;;;2.10;;
41556;SDS011;27720;51.992;5.890;2023-06-05T22:46:16;4.40;;;1.90;;
41556;SDS011;27720;51.992;5.890;2023-06-05T22:48:42;3.40;;;1.88;;
41556;SDS011;27720;51.992;5.890;2023-06-05T22:51:08;3.92;;;2.25;;
41556;SDS011;27720;51.992;5.890;2023-06-05T22:53:37;3.78;;;2.38;;
41556;SDS011;27720;51.992;5.890;2023-06-05T22:56:03;4.45;;;2.17;;
41556;SDS011;27720;51.992;5.890;2023-06-05T22:58:31;3.63;;;1.77;;
41556;SDS011;27720;51.992;5.890;2023-06-05T23:00:57;8.05;;;2.53;;
41556;SDS011;27720;51.992;5.890;2023-06-05T23:03:25;5.93;;;2.22;;
41556;SDS011;27720;51.992;5.890;2023-06-05T23:05:50;6.03;;;2.50;;
41556;SDS011;27720;51.992;5.890;2023-06-05T23:08:16;7.15;;;2.70;;
41556;SDS011;27720;51.992;5.890;2023-06-05T23:10:43;4.10;;;2.25;;
41556;SDS011;27720;51.992;5.890;2023-06-05T23:13:10;4.68;;;2.13;;
41556;SDS011;27720;51.992;5.890;2023-06-05T23:15:36;4.18;;;2.28;;
41556;SDS011;27720;51.992;5.890;2023-06-05T23:18:11;4.72;;;2.85;;
41556;SDS011;27720;51.992;5.890;2023-06-05T23:20:37;4.57;;;1.95;;
41556;SDS011;27720;51.992;5.890;2023-06-05T23:23:04;3.45;;;2.22;;
41556;SDS011;27720;51.992;5.890;2023-06-05T23:25:30;4.13;;;2.03;;
41556;SDS011;27720;51.992;5.890;2023-06-05T23:27:57;5.75;;;2.22;;
41556;SDS011;27720;51.992;5.890;2023-06-05T23:30:22;3.25;;;1.88;;
41556;SDS011;27720;51.992;5.890;2023-06-05T23:32:48;5.63;;;2.20;;
41556;SDS011;27720;51.992;5.890;2023-06-05T23:35:14;4.63;;;2.30;;
41556;SDS011;27720;51.992;5.890;2023-06-05T23:37:41;6.45;;;2.05;;
41556;SDS011;27720;51.992;5.890;2023-06-05T23:40:07;4.55;;;2.03;;
41556;SDS011;27720;51.992;5.890;2023-06-05T23:42:34;5.13;;;2.30;;
41556;SDS011;27720;51.992;5.890;2023-06-05T23:45:03;4.50;;;2.55;;
41556;SDS011;27720;51.992;5.890;2023-06-05T23:47:32;4.70;;;2.33;;
41556;SDS011;27720;51.992;5.890;2023-06-05T23:49:58;3.60;;;2.03;;
41556;SDS011;27720;51.992;5.890;2023-06-05T23:52:24;3.60;;;1.95;;
41556;SDS011;27720;51.992;5.890;2023-06-05T23:54:52;5.53;;;2.90;;
41556;SDS011;27720;51.992;5.890;2023-06-05T23:57:18;5.40;;;2.28;;
41556;SDS011;27720;51.992;5.890;2023-06-05T23:59:50;5.50;;;1.98;;
